Poltava, Ukraine
Current Conditions -  °F | °C
As of 2:30 AM on Sunday 23 Nov 2014 (Local Time) from UKHH Reporting Station
Overcast Overcast  
Wind Chill: -9°   Ceiling: 800
Heat Index: -6°   Visibility: 6mi
Dew Point: -8°   Wind: 4mph
Humidity: 86%   Direction: 90°E
Pressure: 30.39"   Gusts: NA
Location:  49.58°N, 34.57°E
Report Text: UKHH 222330Z 09002MPS 030V120 9999 BKN008 OVC020 M06/M08 Q1029 07190064 NOSIG
Loading
Personal Weather Stations






























Interactive Weather Map New forecast layout! Learn more

10-Day Weather Forecast

Advertisements
Track Severe Weather on mobile